Details for Ryanair at LEMD




Go Back


Latest METAR
Local Time

LEMD 220830Z 32001KT CAVOK 22/12 Q1025 NOSIG
22/09/2018, 10:52:40

Description
Results
Ryanair Logo
Number of Pilots based at LEMD
1 Pilots Based here
Number of Ryanair Flights Departed from LEMD
14 Flights Departed
Number of Ryanair Flights Arrived at LEMD
14 Flights Arrived
Number of Ryanair Schedules Departing from LEMD
137 Schedules
Number of Ryanair Schedules Arriving at LEMD
136 Schedules
Number of Ryanair Schedules Departing from LEMD availible today
52 Schedules Today
Number of Ryanair Schedules Arriving at LEMD availible today
52 Schedules Today
Average Landing Rate at LEMD
-208 fpm
Ryanair Average Landing Rate at LEMD
-258 fpm
Total Fuel Purchased at LEMD by Ryanair
60,003.10 kgs / 132,282.83 lbs

Pilots Based at LEMD


Pilot ID
Pilot Name
Pilot Rank
No. of Flights
No. of Flying Hours
Felix Strässer
6
17.43
Content